バンジュール の空港の天気 - METARとTAF

バンジュール国際空港 ( GBYD / BJL ) - ガンビア バンジュール
飛行場実況気象(Metar)
観測時間04/24 16:00 GMT (04/24 16:00 UTC)
風向・風速西 4m/s
視程10km以上
天気現象
なし
気温28℃
湿度55%
気圧1009hPa
METARGBYD 241600Z 26007KT CAVOK 28/18 Q1009
過去の天気等 Google飛行場航空写真 Wunderground天気予報

過去48時間のMETAR

飛行場予報(TAF)
発表時間: 4/24 11:30 GMT (4/24 11:30 UTC)
予報対象時間: 24日12時 GMT ~ 25日18時 GMT
風向・風速西北西 4m/s
視程10km以上
なし
TAF GBYD 241130Z 2412/2518 30008KT CAVOK